Time;durP1;ratioP1;P1;durP2;ratioP2;P2;SDS_P1;SDS_P2;PMS_P1;PMS_P2;Temp;Humidity;BMP_temperature;BMP_pressure;BME280_temperature;BME280_humidity;BME280_pressure;Samples;Min_cycle;Max_cycle;Signal;HPM_P1;HPM_P2
2022/09/27 00:01:59;;;;;;;3.60;0.73;;;9.80;99.90;;;;;;5051087;28;20033;-46
2022/09/27 00:04:26;;;;;;;3.70;0.75;;;9.60;99.90;;;;;;5050922;28;20037;-45
2022/09/27 00:06:52;;;;;;;2.10;0.70;;;9.70;99.90;;;;;;5049605;28;20547;-46
2022/09/27 00:09:18;;;;;;;3.83;0.90;;;9.70;99.90;;;;;;5050662;28;20033;-44
2022/09/27 00:11:44;;;;;;;2.58;0.50;;;9.70;99.90;;;;;;5037537;28;20033;-45
2022/09/27 00:14:15;;;;;;;3.90;0.73;;;9.70;99.90;;;;;;5050717;28;20047;-47
2022/09/27 00:16:42;;;;;;;5.47;0.68;;;9.60;99.90;;;;;;5038651;28;20047;-45
2022/09/27 00:19:17;;;;;;;4.97;0.47;;;9.60;99.90;;;;;;5050762;28;20119;-44
2022/09/27 00:21:44;;;;;;;4.28;0.65;;;9.60;99.90;;;;;;5050480;28;20056;-46
2022/09/27 00:24:12;;;;;;;4.82;0.98;;;9.70;99.90;;;;;;5050708;28;20496;-43
2022/09/27 00:26:38;;;;;;;2.70;0.40;;;9.80;99.90;;;;;;5050827;28;20103;-44
2022/09/27 00:29:04;;;;;;;2.83;0.47;;;9.50;99.90;;;;;;5050703;28;20112;-46
2022/09/27 00:31:30;;;;;;;4.30;0.60;;;9.60;99.90;;;;;;5050284;28;20048;-43
2022/09/27 00:33:59;;;;;;;3.88;0.70;;;9.70;99.90;;;;;;5050695;28;20033;-44
2022/09/27 00:36:26;;;;;;;2.03;0.60;;;9.60;99.90;;;;;;5051022;28;20644;-46
2022/09/27 00:38:52;;;;;;;1.70;0.40;;;9.60;99.90;;;;;;5054852;28;20092;-44
2022/09/27 00:41:24;;;;;;;6.40;0.80;;;9.60;99.90;;;;;;5054407;28;20045;-45
2022/09/27 00:43:58;;;;;;;3.17;0.70;;;9.60;99.90;;;;;;5054820;28;20091;-44
2022/09/27 00:46:34;;;;;;;3.00;0.63;;;9.50;99.90;;;;;;5052735;28;20040;-44
2022/09/27 00:49:23;;;;;;;5.00;0.80;;;9.30;99.90;;;;;;5054751;28;20036;-47
2022/09/27 00:51:54;;;;;;;5.57;0.85;;;9.40;99.90;;;;;;5054702;28;20407;-45
2022/09/27 00:54:22;;;;;;;4.38;0.60;;;9.30;99.90;;;;;;5054638;28;20065;-44
2022/09/27 00:56:49;;;;;;;7.32;0.80;;;9.40;99.90;;;;;;5054351;28;20488;-44
2022/09/27 00:59:29;;;;;;;4.97;0.80;;;9.60;99.90;;;;;;5054303;28;20033;-44
2022/09/27 01:01:55;;;;;;;3.53;0.70;;;9.60;99.90;;;;;;5054107;28;20124;-42
2022/09/27 01:04:23;;;;;;;6.00;0.63;;;9.60;99.90;;;;;;5054309;28;20044;-44
2022/09/27 01:06:50;;;;;;;7.05;1.50;;;9.70;99.90;;;;;;5054281;28;20036;-47
2022/09/27 01:09:16;;;;;;;7.38;1.15;;;9.70;99.90;;;;;;5054000;28;20036;-44
2022/09/27 01:11:56;;;;;;;5.82;0.98;;;9.50;99.90;;;;;;5053934;28;20037;-44
2022/09/27 01:14:42;;;;;;;4.80;0.60;;;9.50;99.90;;;;;;5054261;28;20040;-44
2022/09/27 01:17:28;;;;;;;6.38;0.95;;;9.70;99.90;;;;;;5054161;28;20036;-45
2022/09/27 01:20:32;;;;;;;4.25;1.25;;;9.60;99.90;;;;;;5038814;28;20053;-45
2022/09/27 01:23:19;;;;;;;5.82;0.90;;;9.60;99.90;;;;;;5014328;28;20133;-46
2022/09/27 01:25:54;;;;;;;6.55;0.90;;;9.80;99.90;;;;;;5014370;28;20045;-46
2022/09/27 01:28:46;;;;;;;6.72;0.63;;;9.90;99.90;;;;;;5012975;28;20081;-43
2022/09/27 01:31:20;;;;;;;3.30;0.50;;;9.70;99.90;;;;;;5013863;28;20068;-44
2022/09/27 01:34:30;;;;;;;5.95;0.70;;;9.60;99.90;;;;;;5013891;28;20034;-45
2022/09/27 01:37:07;;;;;;;4.45;1.10;;;9.80;99.90;;;;;;4964630;28;20047;-45
2022/09/27 01:39:42;;;;;;;6.03;1.02;;;9.60;99.90;;;;;;4953127;28;20045;-45
2022/09/27 01:42:19;;;;;;;4.15;0.80;;;9.60;99.90;;;;;;4992125;28;20486;-43
2022/09/27 01:45:02;;;;;;;4.82;0.60;;;9.90;99.90;;;;;;5012376;28;20111;-44
2022/09/27 01:47:38;;;;;;;4.75;0.60;;;9.80;99.90;;;;;;5013562;28;20049;-48
2022/09/27 01:50:07;;;;;;;6.43;0.60;;;9.70;99.90;;;;;;5011716;28;20041;-45
2022/09/27 01:52:56;;;;;;;2.45;0.60;;;9.60;99.90;;;;;;5013699;28;20041;-44
2022/09/27 01:55:27;;;;;;;4.57;0.50;;;9.80;99.90;;;;;;5012595;28;20053;-45
2022/09/27 01:58:02;;;;;;;3.42;0.60;;;9.70;99.90;;;;;;5013767;28;20076;-45
2022/09/27 02:00:28;;;;;;;2.58;0.75;;;9.60;99.90;;;;;;5013671;28;20030;-45
2022/09/27 02:03:11;;;;;;;3.72;0.70;;;9.50;99.90;;;;;;5013652;28;20045;-44
2022/09/27 02:05:45;;;;;;;2.60;0.32;;;9.40;99.90;;;;;;5013097;28;20111;-47
2022/09/27 02:08:37;;;;;;;4.35;0.60;;;9.40;99.90;;;;;;5013166;28;20096;-45
2022/09/27 02:11:12;;;;;;;1.77;0.45;;;9.40;99.90;;;;;;5013141;28;20030;-48
2022/09/27 02:13:47;;;;;;;2.40;0.45;;;9.30;99.90;;;;;;5013361;28;20381;-47
2022/09/27 02:16:39;;;;;;;3.25;0.57;;;9.30;99.90;;;;;;5013294;28;20041;-44
2022/09/27 02:19:25;;;;;;;3.53;0.93;;;9.30;99.90;;;;;;5013273;28;20081;-44
2022/09/27 02:22:08;;;;;;;5.22;0.68;;;9.40;99.90;;;;;;5025280;28;20084;-44
2022/09/27 02:24:45;;;;;;;9.45;0.80;;;9.20;99.90;;;;;;5032716;28;20038;-44
2022/09/27 02:27:29;;;;;;;2.28;0.40;;;9.30;99.90;;;;;;5032832;28;20366;-44
2022/09/27 02:30:15;;;;;;;3.97;0.60;;;9.20;99.90;;;;;;5033008;28;20087;-44
2022/09/27 02:32:42;;;;;;;5.05;0.40;;;9.20;99.90;;;;;;5032898;28;20448;-45
2022/09/27 02:35:19;;;;;;;4.45;0.80;;;9.30;99.90;;;;;;5031560;28;20034;-47
2022/09/27 02:37:46;;;;;;;4.88;0.60;;;9.40;99.90;;;;;;5032723;28;20477;-44
2022/09/27 02:40:12;;;;;;;3.63;0.52;;;9.20;99.90;;;;;;5031128;28;20044;-43
2022/09/27 02:42:41;;;;;;;5.28;0.57;;;9.40;99.90;;;;;;5030764;28;20136;-43
2022/09/27 02:45:07;;;;;;;4.28;0.60;;;9.40;99.90;;;;;;5032250;28;20076;-45
2022/09/27 02:47:39;;;;;;;1.92;0.43;;;9.30;99.90;;;;;;5032126;28;20033;-43
2022/09/27 02:50:17;;;;;;;4.10;0.70;;;9.20;99.90;;;;;;5032136;28;20120;-44
2022/09/27 02:53:16;;;;;;;4.35;0.50;;;9.30;99.90;;;;;;5032344;28;20432;-47
2022/09/27 02:55:55;;;;;;;3.47;0.40;;;9.40;99.90;;;;;;5031361;28;20453;-46
2022/09/27 02:58:36;;;;;;;6.45;0.52;;;9.20;99.90;;;;;;5031956;28;20045;-45
2022/09/27 03:01:16;;;;;;;3.10;0.60;;;9.20;99.90;;;;;;5031944;28;20045;-46
2022/09/27 03:03:52;;;;;;;4.45;0.63;;;9.20;99.90;;;;;;5032349;28;20037;-48
2022/09/27 03:06:21;;;;;;;3.25;0.57;;;9.20;99.90;;;;;;5032189;28;20487;-45
2022/09/27 03:08:47;;;;;;;3.25;0.50;;;9.20;99.90;;;;;;5032026;28;20030;-43
2022/09/27 03:11:13;;;;;;;1.92;0.40;;;9.10;99.90;;;;;;5031769;28;20033;-46
2022/09/27 03:13:38;;;;;;;2.67;0.70;;;9.10;99.90;;;;;;5032001;28;20033;-46
2022/09/27 03:16:05;;;;;;;4.55;0.60;;;9.10;99.90;;;;;;5031952;28;20056;-43
2022/09/27 03:18:32;;;;;;;4.03;0.50;;;9.10;99.90;;;;;;5031882;28;20042;-44
2022/09/27 03:20:57;;;;;;;4.25;0.60;;;9.30;99.90;;;;;;5036025;28;20500;-44
2022/09/27 03:23:23;;;;;;;4.68;0.50;;;9.30;99.90;;;;;;5052028;28;20059;-46
2022/09/27 03:25:50;;;;;;;5.18;0.55;;;9.30;99.90;;;;;;5051718;28;20045;-48
2022/09/27 03:28:16;;;;;;;3.22;0.68;;;9.10;99.90;;;;;;5051271;28;20045;-46
2022/09/27 03:30:44;;;;;;;6.15;0.68;;;9.10;99.90;;;;;;5051691;28;20037;-46
2022/09/27 03:33:09;;;;;;;4.47;0.70;;;9.20;99.90;;;;;;5051480;28;20067;-43
2022/09/27 03:35:36;;;;;;;3.15;0.50;;;9.20;99.90;;;;;;5051570;28;20052;-45
2022/09/27 03:38:02;;;;;;;4.63;0.57;;;9.20;99.90;;;;;;5051415;28;20051;-44
2022/09/27 03:40:30;;;;;;;2.85;0.40;;;9.20;99.90;;;;;;5051022;28;20070;-43
2022/09/27 03:42:56;;;;;;;5.00;1.02;;;9.10;99.90;;;;;;5051386;28;20037;-45
2022/09/27 03:45:22;;;;;;;3.63;0.77;;;9.30;99.90;;;;;;5051343;28;20040;-43
2022/09/27 03:47:48;;;;;;;4.25;0.60;;;9.10;99.90;;;;;;5051301;28;20048;-47
2022/09/27 03:50:13;;;;;;;3.03;0.70;;;9.20;99.90;;;;;;5050905;28;20071;-43
2022/09/27 03:52:41;;;;;;;5.63;0.60;;;9.20;99.90;;;;;;5051346;28;20086;-46
2022/09/27 03:55:07;;;;;;;1.73;0.50;;;9.00;99.90;;;;;;5050914;28;20141;-45
2022/09/27 03:57:36;;;;;;;7.75;0.98;;;9.10;99.90;;;;;;5051125;28;20103;-45
2022/09/27 04:00:04;;;;;;;3.30;0.52;;;9.10;99.90;;;;;;5051172;28;20068;-45
2022/09/27 04:02:30;;;;;;;4.53;0.63;;;9.00;99.90;;;;;;5051172;28;20041;-45
2022/09/27 04:04:55;;;;;;;4.45;0.60;;;8.90;99.90;;;;;;5050858;28;20098;-43
2022/09/27 04:07:22;;;;;;;3.88;0.55;;;8.80;99.90;;;;;;5050849;28;20040;-45
2022/09/27 04:09:48;;;;;;;2.88;0.60;;;8.80;99.90;;;;;;5051104;28;20076;-43
2022/09/27 04:12:14;;;;;;;2.95;0.43;;;8.90;99.90;;;;;;5049867;28;20599;-43
2022/09/27 04:14:40;;;;;;;4.82;0.70;;;8.90;99.90;;;;;;5050983;28;20472;-44
2022/09/27 04:17:06;;;;;;;3.47;0.60;;;8.90;99.90;;;;;;5048787;28;20071;-46
2022/09/27 04:19:31;;;;;;;4.97;0.60;;;9.00;99.90;;;;;;5050877;28;20484;-43
2022/09/27 04:21:57;;;;;;;6.30;0.68;;;8.90;99.90;;;;;;5050342;28;20135;-44
2022/09/27 04:24:24;;;;;;;4.72;0.57;;;8.80;99.90;;;;;;5050812;28;20041;-44
2022/09/27 04:26:50;;;;;;;5.38;0.50;;;8.90;99.90;;;;;;5050747;28;20573;-45
2022/09/27 04:29:16;;;;;;;3.40;0.60;;;8.80;99.90;;;;;;5049368;28;20029;-45
2022/09/27 04:31:43;;;;;;;5.75;0.70;;;8.90;99.90;;;;;;5050748;28;20048;-48
2022/09/27 04:34:09;;;;;;;7.47;0.80;;;9.00;99.90;;;;;;5050832;28;20033;-47
2022/09/27 04:36:35;;;;;;;7.45;0.70;;;8.70;99.90;;;;;;5050778;28;20196;-47
2022/09/27 04:39:07;;;;;;;4.57;0.70;;;8.80;99.90;;;;;;5050811;28;20037;-47
2022/09/27 04:41:34;;;;;;;5.07;0.57;;;8.80;99.90;;;;;;5049994;28;20037;-44
2022/09/27 04:44:00;;;;;;;4.22;0.70;;;8.70;99.90;;;;;;5050290;28;20052;-44
2022/09/27 04:46:30;;;;;;;3.72;0.68;;;8.70;99.90;;;;;;5050648;28;20029;-43
2022/09/27 04:49:00;;;;;;;6.97;0.75;;;8.90;99.90;;;;;;5049358;28;20375;-45
2022/09/27 04:51:26;;;;;;;4.95;1.00;;;8.80;99.90;;;;;;5049111;28;20492;-44
2022/09/27 04:53:52;;;;;;;4.05;0.80;;;8.90;99.90;;;;;;5050284;28;20112;-45
2022/09/27 04:56:18;;;;;;;5.35;0.82;;;8.70;99.90;;;;;;5050637;28;20115;-45
2022/09/27 04:58:44;;;;;;;3.90;0.80;;;8.60;99.90;;;;;;5050418;28;20452;-45
2022/09/27 05:01:10;;;;;;;8.48;0.98;;;8.60;99.90;;;;;;5050258;28;20116;-45
2022/09/27 05:03:35;;;;;;;6.60;0.80;;;8.70;99.90;;;;;;5050166;28;20040;-45
2022/09/27 05:06:01;;;;;;;4.40;1.00;;;8.50;99.90;;;;;;5050329;28;20103;-46
2022/09/27 05:08:27;;;;;;;7.15;1.08;;;8.40;99.90;;;;;;5049928;28;20041;-45
2022/09/27 05:10:54;;;;;;;9.55;0.93;;;8.40;99.90;;;;;;5047318;28;20037;-48
2022/09/27 05:13:19;;;;;;;6.47;0.55;;;8.40;99.90;;;;;;5050488;28;20033;-46
2022/09/27 05:15:45;;;;;;;5.45;0.50;;;8.20;99.90;;;;;;5050483;28;20033;-45
2022/09/27 05:18:11;;;;;;;6.40;0.90;;;8.00;99.90;;;;;;5050263;28;20033;-43
2022/09/27 05:20:38;;;;;;;3.67;0.80;;;7.90;99.90;;;;;;5049744;28;20049;-44
2022/09/27 05:23:04;;;;;;;10.68;0.93;;;8.10;99.90;;;;;;5039768;28;20094;-45
2022/09/27 05:25:31;;;;;;;5.43;0.73;;;7.80;99.90;;;;;;5053615;28;20419;-43
2022/09/27 05:27:57;;;;;;;3.08;0.65;;;7.70;99.90;;;;;;5051674;28;20395;-43
2022/09/27 05:30:26;;;;;;;4.22;0.60;;;7.70;99.90;;;;;;5053986;28;20076;-45
2022/09/27 05:32:52;;;;;;;3.95;0.70;;;7.90;99.90;;;;;;5053628;28;20079;-46
2022/09/27 05:35:19;;;;;;;6.40;0.70;;;7.90;99.90;;;;;;5053462;28;20060;-43
2022/09/27 05:37:56;;;;;;;5.10;0.88;;;7.70;99.90;;;;;;5053684;28;20105;-45
2022/09/27 05:40:23;;;;;;;5.05;1.05;;;7.70;99.90;;;;;;5053310;28;20080;-43
2022/09/27 05:42:51;;;;;;;5.90;1.00;;;7.60;99.90;;;;;;5053323;28;20036;-44
2022/09/27 05:45:17;;;;;;;7.25;1.00;;;7.80;99.90;;;;;;5053405;28;20055;-46
2022/09/27 05:47:50;;;;;;;7.53;0.80;;;7.80;99.90;;;;;;5053255;28;20098;-43
2022/09/27 05:50:16;;;;;;;5.68;1.08;;;7.80;99.90;;;;;;5053709;28;20037;-43
2022/09/27 05:52:42;;;;;;;3.35;0.80;;;7.70;99.90;;;;;;5053119;28;20115;-45
2022/09/27 05:55:08;;;;;;;8.18;1.10;;;7.80;99.90;;;;;;5053369;28;20116;-46
2022/09/27 05:57:34;;;;;;;2.83;1.05;;;7.80;99.90;;;;;;5053351;28;20041;-45
2022/09/27 05:59:59;;;;;;;5.78;0.70;;;7.80;99.90;;;;;;5053388;28;20094;-43
2022/09/27 06:02:25;;;;;;;2.90;0.50;;;8.10;99.90;;;;;;5053346;28;20103;-43
2022/09/27 06:04:51;;;;;;;4.55;0.98;;;8.10;99.90;;;;;;5053232;28;20068;-45
2022/09/27 06:07:17;;;;;;;3.65;0.45;;;8.30;99.90;;;;;;5050855;28;20049;-43
2022/09/27 06:09:43;;;;;;;4.18;0.73;;;8.20;99.90;;;;;;5051693;28;20037;-45
2022/09/27 06:12:10;;;;;;;5.80;0.57;;;8.10;99.90;;;;;;5052554;28;20029;-49
2022/09/27 06:14:37;;;;;;;2.72;0.63;;;8.20;99.90;;;;;;5052760;28;20123;-46
2022/09/27 06:17:05;;;;;;;3.58;0.50;;;8.50;99.90;;;;;;5052730;28;20106;-46
2022/09/27 06:19:31;;;;;;;3.30;0.60;;;8.50;99.90;;;;;;5050928;28;20123;-43
2022/09/27 06:21:57;;;;;;;4.28;0.70;;;8.60;99.90;;;;;;5044939;28;20559;-46
2022/09/27 06:24:22;;;;;;;3.05;0.50;;;8.90;99.90;;;;;;5046155;28;20041;-49
2022/09/27 06:26:48;;;;;;;2.17;0.60;;;8.80;99.90;;;;;;5048271;28;20044;-45
2022/09/27 06:29:14;;;;;;;2.05;0.57;;;8.80;99.90;;;;;;5046155;28;20051;-45
2022/09/27 06:31:39;;;;;;;2.58;0.47;;;9.10;99.90;;;;;;5045465;28;20473;-47
2022/09/27 06:34:05;;;;;;;3.97;0.68;;;9.10;99.90;;;;;;5045591;28;20554;-44
2022/09/27 06:36:32;;;;;;;1.00;0.50;;;9.00;99.90;;;;;;5045340;28;20076;-45
2022/09/27 06:39:00;;;;;;;2.58;0.50;;;9.10;99.90;;;;;;5047022;28;20147;-44
2022/09/27 06:41:26;;;;;;;3.92;0.60;;;9.10;99.90;;;;;;5047094;28;20041;-42
2022/09/27 06:43:51;;;;;;;5.90;0.70;;;9.40;99.90;;;;;;5046267;28;20090;-43
2022/09/27 06:46:17;;;;;;;1.58;0.40;;;9.50;99.90;;;;;;5048057;28;20029;-45
2022/09/27 06:48:43;;;;;;;5.93;0.80;;;9.50;99.90;;;;;;5045261;28;20451;-47
2022/09/27 06:51:08;;;;;;;3.95;0.63;;;9.50;99.90;;;;;;5045680;28;20033;-45
2022/09/27 06:53:34;;;;;;;4.40;0.52;;;9.60;99.90;;;;;;5049245;28;20029;-45
2022/09/27 06:56:00;;;;;;;3.55;0.43;;;9.70;99.90;;;;;;5049019;28;20039;-46
2022/09/27 07:01:11;;;;;;;5.18;0.60;;;9.60;99.90;;;;;;5048347;28;20052;-44
2022/09/27 07:03:40;;;;;;;3.17;0.40;;;9.80;99.90;;;;;;5044461;28;20032;-43
2022/09/27 07:06:17;;;;;;;3.53;0.50;;;9.90;99.90;;;;;;5047430;28;20045;-48
2022/09/27 07:08:42;;;;;;;2.58;0.60;;;10.00;99.90;;;;;;5048534;28;20059;-45
2022/09/27 07:11:08;;;;;;;2.30;0.50;;;9.80;99.90;;;;;;5045374;28;20041;-45
2022/09/27 07:13:39;;;;;;;2.83;0.52;;;9.70;99.90;;;;;;5044801;28;20090;-42
2022/09/27 07:16:05;;;;;;;2.95;0.52;;;9.70;99.90;;;;;;5045304;28;20045;-47
2022/09/27 07:18:30;;;;;;;1.40;0.40;;;9.80;99.90;;;;;;5045658;28;20043;-45
2022/09/27 07:20:59;;;;;;;2.63;0.52;;;9.80;99.90;;;;;;5043338;28;20056;-43
2022/09/27 07:23:25;;;;;;;1.85;0.43;;;9.80;99.90;;;;;;5033196;28;21001;-43
2022/09/27 07:25:51;;;;;;;1.58;0.40;;;9.70;99.90;;;;;;5042763;28;20403;-44
2022/09/27 07:28:18;;;;;;;2.15;0.40;;;9.70;99.90;;;;;;5043893;28;20049;-43
2022/09/27 07:30:45;;;;;;;2.85;0.30;;;10.10;99.90;;;;;;5046018;28;20036;-44
2022/09/27 07:33:11;;;;;;;2.60;0.40;;;10.10;99.90;;;;;;5044486;28;20527;-44
2022/09/27 07:35:41;;;;;;;3.58;0.40;;;10.20;99.90;;;;;;5046167;28;20472;-44
2022/09/27 07:38:11;;;;;;;2.92;0.40;;;10.30;99.90;;;;;;5044305;28;20037;-46
2022/09/27 07:40:36;;;;;;;3.05;0.38;;;10.40;99.90;;;;;;5043236;28;20041;-46
2022/09/27 07:43:03;;;;;;;3.45;0.50;;;10.60;99.90;;;;;;5045451;28;20045;-45
2022/09/27 07:45:30;;;;;;;1.23;0.40;;;10.80;99.90;;;;;;5045647;28;20033;-43
2022/09/27 07:47:56;;;;;;;1.65;0.63;;;11.00;99.90;;;;;;5044733;28;20044;-43
2022/09/27 07:50:21;;;;;;;4.03;0.40;;;11.00;99.90;;;;;;5048693;28;20186;-45
2022/09/27 07:52:51;;;;;;;1.60;0.30;;;11.00;99.90;;;;;;5044540;28;20119;-43
2022/09/27 07:55:18;;;;;;;3.47;0.40;;;11.00;99.90;;;;;;5048198;28;20031;-44
2022/09/27 07:57:44;;;;;;;0.80;0.30;;;11.00;99.90;;;;;;5044034;28;20055;-45
2022/09/27 08:00:16;;;;;;;2.38;0.40;;;10.80;99.90;;;;;;5047661;28;20479;-45
2022/09/27 08:02:42;;;;;;;0.40;0.35;;;10.70;99.90;;;;;;5044546;28;20123;-45
2022/09/27 08:05:09;;;;;;;3.22;0.40;;;10.60;99.90;;;;;;5043342;28;20041;-45
2022/09/27 08:07:36;;;;;;;1.30;0.32;;;10.60;99.90;;;;;;5044091;28;20104;-43
2022/09/27 08:10:01;;;;;;;2.45;0.40;;;10.50;99.90;;;;;;5045633;28;20064;-45
2022/09/27 08:12:27;;;;;;;1.35;0.35;;;10.40;99.90;;;;;;5043832;28;20167;-47
2022/09/27 08:14:53;;;;;;;2.33;0.30;;;10.40;99.90;;;;;;5043969;28;20036;-43
2022/09/27 08:17:19;;;;;;;1.48;0.30;;;10.40;99.90;;;;;;5045465;28;20384;-46
2022/09/27 08:19:47;;;;;;;2.13;0.45;;;10.40;99.90;;;;;;5044308;28;20056;-45
2022/09/27 08:22:12;;;;;;;1.02;0.32;;;10.50;99.90;;;;;;5044661;28;20145;-45
2022/09/27 08:24:39;;;;;;;1.60;0.30;;;10.50;99.90;;;;;;5042153;28;20136;-44
2022/09/27 08:27:06;;;;;;;2.33;0.50;;;10.50;99.90;;;;;;5042791;28;20049;-44
2022/09/27 08:29:33;;;;;;;1.48;0.35;;;10.50;99.90;;;;;;5033263;28;20051;-44
2022/09/27 08:31:58;;;;;;;3.55;0.30;;;10.50;99.90;;;;;;5046582;28;20040;-43
2022/09/27 08:34:24;;;;;;;1.17;0.30;;;10.60;99.90;;;;;;5041573;28;20415;-46
2022/09/27 08:36:50;;;;;;;0.80;0.28;;;10.50;99.90;;;;;;5042447;28;20446;-46
2022/09/27 08:39:15;;;;;;;1.17;0.40;;;10.70;99.90;;;;;;5044802;28;20037;-44
2022/09/27 08:42:13;;;;;;;0.85;0.30;;;10.70;99.90;;;;;;5040786;28;20082;-46
2022/09/27 08:44:51;;;;;;;0.77;0.35;;;10.90;99.90;;;;;;5041166;28;20044;-45
2022/09/27 08:47:28;;;;;;;0.98;0.30;;;10.80;99.90;;;;;;5035177;28;20128;-45
2022/09/27 08:50:02;;;;;;;2.15;0.38;;;11.10;99.90;;;;;;5042645;28;20057;-43
2022/09/27 08:52:45;;;;;;;0.75;0.38;;;10.90;99.90;;;;;;5041653;28;20103;-45
2022/09/27 08:55:29;;;;;;;2.00;0.40;;;10.80;99.90;;;;;;5040100;28;20128;-44
2022/09/27 08:57:57;;;;;;;1.42;0.35;;;10.70;99.90;;;;;;5030908;28;20048;-45
2022/09/27 09:00:27;;;;;;;1.80;0.40;;;10.70;99.90;;;;;;5045439;28;20095;-47
2022/09/27 09:02:53;;;;;;;4.03;0.43;;;10.60;99.90;;;;;;5046265;28;21384;-45
2022/09/27 09:05:30;;;;;;;1.67;0.32;;;10.60;99.90;;;;;;5043344;28;20067;-45
2022/09/27 09:08:19;;;;;;;1.33;0.60;;;10.60;99.90;;;;;;5046182;28;20091;-43
2022/09/27 09:13:53;;;;;;;1.55;0.32;;;10.50;99.90;;;;;;5047520;28;20098;-47
2022/09/27 09:16:42;;;;;;;1.65;0.40;;;10.30;99.90;;;;;;5051566;28;20076;-43
2022/09/27 09:19:39;;;;;;;0.80;0.30;;;10.60;99.90;;;;;;5046198;28;20029;-43
2022/09/27 09:22:27;;;;;;;1.17;0.22;;;10.50;99.90;;;;;;5036683;28;20492;-44
2022/09/27 09:25:12;;;;;;;0.70;0.20;;;10.60;99.90;;;;;;5048255;28;20041;-46
2022/09/27 09:28:16;;;;;;;1.13;0.45;;;10.60;99.90;;;;;;5047595;28;20053;-47
2022/09/27 09:30:46;;;;;;;1.20;0.30;;;10.50;99.90;;;;;;5048181;28;20144;-47
2022/09/27 09:33:28;;;;;;;0.52;0.30;;;10.50;99.90;;;;;;5035542;28;20132;-47
2022/09/27 09:36:12;;;;;;;1.45;0.22;;;10.60;99.90;;;;;;5047916;28;20072;-48
2022/09/27 09:38:47;;;;;;;1.42;0.30;;;10.60;99.90;;;;;;5046210;28;20377;-46
2022/09/27 09:41:37;;;;;;;1.90;0.50;;;10.80;99.90;;;;;;5044430;28;20061;-45
2022/09/27 09:44:44;;;;;;;0.90;0.30;;;10.70;99.90;;;;;;5046588;28;20033;-49
2022/09/27 09:47:21;;;;;;;1.50;0.40;;;10.90;99.90;;;;;;5013604;28;20052;-45
2022/09/27 09:49:54;;;;;;;1.30;0.40;;;10.90;99.90;;;;;;5045492;28;20091;-43
2022/09/27 09:52:23;;;;;;;3.03;0.40;;;11.00;99.90;;;;;;5043741;28;20673;-46
2022/09/27 09:55:01;;;;;;;3.05;0.75;;;11.10;99.90;;;;;;5047283;28;20033;-46
2022/09/27 09:57:53;;;;;;;1.33;0.30;;;11.20;99.90;;;;;;5045615;28;20558;-45
2022/09/27 10:00:19;;;;;;;2.70;0.40;;;11.40;99.90;;;;;;5046481;28;20396;-45
2022/09/27 10:02:46;;;;;;;1.67;0.40;;;11.40;99.90;;;;;;5044400;28;20033;-44
2022/09/27 10:05:18;;;;;;;3.35;0.45;;;11.50;99.90;;;;;;5047610;28;20400;-44
2022/09/27 10:07:44;;;;;;;0.63;0.30;;;11.50;99.90;;;;;;5046481;28;20051;-46
2022/09/27 10:10:15;;;;;;;3.13;0.40;;;11.70;99.90;;;;;;5047426;28;20052;-47
2022/09/27 10:12:42;;;;;;;1.73;0.38;;;11.70;99.90;;;;;;5048989;28;20037;-45
2022/09/27 10:15:15;;;;;;;2.50;0.50;;;11.70;99.90;;;;;;5044991;28;20063;-46
2022/09/27 10:17:46;;;;;;;3.25;0.80;;;11.50;99.90;;;;;;5048659;28;20043;-48
2022/09/27 10:20:34;;;;;;;3.88;0.50;;;11.20;99.90;;;;;;5045212;28;20035;-46
2022/09/27 10:23:14;;;;;;;2.13;0.40;;;11.20;99.90;;;;;;5047978;28;20057;-46
2022/09/27 10:25:55;;;;;;;1.75;0.35;;;11.00;99.90;;;;;;5048368;28;20459;-46
2022/09/27 10:28:33;;;;;;;1.08;0.30;;;10.90;99.90;;;;;;5033212;28;20095;-44
2022/09/27 10:31:03;;;;;;;0.70;0.20;;;10.20;99.90;;;;;;5046682;28;20124;-45
2022/09/27 10:33:30;;;;;;;0.85;0.30;;;10.20;99.90;;;;;;5049676;28;20045;-45
2022/09/27 10:35:57;;;;;;;0.95;0.30;;;10.00;99.90;;;;;;5046697;28;20087;-47
2022/09/27 10:38:35;;;;;;;1.92;0.40;;;9.70;99.90;;;;;;5044775;28;20028;-43
2022/09/27 10:41:24;;;;;;;1.52;0.30;;;10.00;99.90;;;;;;5047407;28;20036;-44
2022/09/27 10:43:50;;;;;;;2.33;0.70;;;9.80;99.90;;;;;;5046819;28;20033;-45
2022/09/27 10:46:16;;;;;;;1.38;0.20;;;9.90;99.90;;;;;;5047286;28;20133;-47
2022/09/27 10:48:42;;;;;;;1.70;0.30;;;10.10;99.90;;;;;;5046179;28;20040;-46
2022/09/27 10:51:30;;;;;;;2.00;0.30;;;10.30;99.90;;;;;;5048222;28;20045;-47
2022/09/27 10:53:59;;;;;;;1.08;0.30;;;10.10;99.90;;;;;;5044134;28;20120;-44
2022/09/27 10:56:31;;;;;;;2.58;0.40;;;10.20;99.90;;;;;;5031489;28;20053;-45
2022/09/27 10:59:02;;;;;;;2.15;0.30;;;10.40;99.90;;;;;;5046681;28;20124;-47
2022/09/27 11:01:44;;;;;;;2.25;0.20;;;10.50;99.90;;;;;;5045872;28;20037;-44
2022/09/27 11:04:29;;;;;;;2.30;0.30;;;10.30;99.90;;;;;;5046301;28;20028;-46
2022/09/27 11:07:22;;;;;;;1.85;0.20;;;10.60;99.90;;;;;;5046341;28;20778;-48
2022/09/27 11:09:53;;;;;;;2.38;0.70;;;10.60;99.90;;;;;;5044037;28;20067;-46
2022/09/27 11:12:21;;;;;;;1.50;0.30;;;10.90;99.90;;;;;;5041297;28;20868;-45
2022/09/27 11:15:18;;;;;;;2.35;0.52;;;11.00;99.90;;;;;;5024004;28;20055;-47
2022/09/27 11:17:54;;;;;;;2.78;0.40;;;11.20;99.90;;;;;;5041037;28;20134;-45
2022/09/27 11:20:31;;;;;;;2.13;0.60;;;11.30;99.90;;;;;;5040963;28;20041;-48
2022/09/27 11:23:27;;;;;;;2.70;0.45;;;11.30;99.90;;;;;;5037734;28;20409;-47
2022/09/27 11:26:19;;;;;;;1.70;0.40;;;11.40;99.90;;;;;;5039801;28;20038;-49
2022/09/27 11:29:06;;;;;;;2.83;0.68;;;11.50;99.90;;;;;;5035781;28;20562;-44
2022/09/27 11:31:58;;;;;;;1.67;0.50;;;11.90;99.90;;;;;;5039614;28;20021;-48
2022/09/27 11:34:42;;;;;;;4.03;0.60;;;11.90;99.90;;;;;;5041046;28;20040;-49
2022/09/27 11:37:19;;;;;;;4.40;0.63;;;11.90;99.90;;;;;;5044161;28;20460;-47
2022/09/27 11:39:55;;;;;;;3.72;0.55;;;12.10;99.90;;;;;;5039508;28;20435;-51
2022/09/27 11:42:48;;;;;;;2.03;0.57;;;12.20;99.90;;;;;;5041392;28;20025;-44
2022/09/27 11:45:19;;;;;;;1.98;0.40;;;12.20;99.90;;;;;;5041857;28;20033;-47
2022/09/27 11:48:11;;;;;;;3.78;0.60;;;12.60;99.90;;;;;;5042120;28;20072;-45
2022/09/27 11:50:59;;;;;;;2.08;0.32;;;12.50;99.90;;;;;;5008633;28;20037;-45
2022/09/27 11:53:28;;;;;;;3.05;0.60;;;12.50;99.90;;;;;;5041798;28;20036;-46
2022/09/27 11:56:14;;;;;;;1.48;0.40;;;12.60;99.90;;;;;;5041894;28;20428;-45
2022/09/27 11:59:04;;;;;;;2.35;0.50;;;12.80;99.90;;;;;;5042059;28;20111;-44
2022/09/27 12:01:49;;;;;;;2.78;0.60;;;12.40;99.90;;;;;;5041595;28;20543;-49
2022/09/27 12:04:52;;;;;;;4.40;0.50;;;12.40;99.90;;;;;;5045367;28;20124;-44
2022/09/27 12:07:41;;;;;;;1.35;0.30;;;12.30;99.90;;;;;;5042547;28;20041;-47
2022/09/27 12:10:16;;;;;;;3.13;0.52;;;12.20;99.90;;;;;;5028134;28;20049;-44
2022/09/27 12:12:44;;;;;;;4.88;0.50;;;12.30;99.90;;;;;;5040586;28;20104;-46
2022/09/27 12:15:20;;;;;;;2.65;0.40;;;12.30;99.90;;;;;;5042900;28;20040;-48
2022/09/27 12:17:50;;;;;;;3.95;0.60;;;12.30;99.90;;;;;;5042611;28;20116;-47
2022/09/27 12:20:29;;;;;;;6.60;0.73;;;12.20;99.90;;;;;;5043382;28;20068;-46
2022/09/27 12:23:22;;;;;;;4.95;0.60;;;12.20;99.90;;;;;;5029315;28;20103;-42
2022/09/27 12:25:53;;;;;;;1.83;0.50;;;11.90;99.90;;;;;;5041221;28;20399;-44
2022/09/27 12:28:33;;;;;;;2.13;0.50;;;12.00;99.90;;;;;;5045979;28;20151;-45
2022/09/27 12:31:39;;;;;;;2.67;0.57;;;11.70;99.90;;;;;;5042399;28;20076;-44
2022/09/27 12:34:39;;;;;;;6.40;0.73;;;11.70;99.90;;;;;;5048625;28;20044;-45
2022/09/27 12:37:18;;;;;;;3.03;0.40;;;11.60;99.90;;;;;;5049235;28;20099;-44
2022/09/27 12:40:01;;;;;;;1.30;0.40;;;11.50;99.90;;;;;;5049137;28;20064;-46
2022/09/27 12:42:37;;;;;;;4.05;0.73;;;11.30;99.90;;;;;;5050172;28;20480;-45
2022/09/27 12:45:04;;;;;;;2.75;0.77;;;11.30;99.90;;;;;;5050001;28;20383;-46
2022/09/27 12:47:48;;;;;;;3.47;0.65;;;11.40;99.90;;;;;;5047056;28;20131;-45
2022/09/27 12:50:27;;;;;;;6.25;0.82;;;11.70;99.90;;;;;;5047611;28;20037;-44
2022/09/27 12:53:03;;;;;;;6.35;0.90;;;11.30;99.90;;;;;;5047734;28;20625;-45
2022/09/27 12:55:36;;;;;;;5.25;0.63;;;11.50;99.90;;;;;;5050141;28;20052;-44
2022/09/27 12:58:10;;;;;;;3.35;0.70;;;11.60;99.90;;;;;;5049876;28;20041;-44
2022/09/27 13:00:41;;;;;;;;;;;11.60;99.90;;;;;;5051455;28;20095;-45
2022/09/27 13:03:35;;;;;;;3.05;0.60;;;11.40;99.90;;;;;;5051177;28;19913;-46
2022/09/27 13:06:10;;;;;;;2.27;0.83;;;11.30;99.90;;;;;;5052033;28;20033;-44
2022/09/27 13:09:14;;;;;;;2.00;0.50;;;11.10;99.90;;;;;;5032166;28;20516;-47
2022/09/27 13:12:15;;;;;;;1.50;0.35;;;10.80;99.90;;;;;;5050605;28;20272;-46
2022/09/27 13:15:13;;;;;;;1.17;0.30;;;10.70;99.90;;;;;;5047373;28;20032;-45
2022/09/27 13:17:43;;;;;;;0.43;0.20;;;10.60;99.90;;;;;;5038598;28;20045;-47
2022/09/27 13:20:33;;;;;;;2.05;0.50;;;10.50;99.90;;;;;;5051356;28;20140;-45
2022/09/27 13:23:19;;;;;;;0.80;0.30;;;10.60;99.90;;;;;;5051987;28;20061;-48
2022/09/27 13:25:52;;;;;;;0.60;0.30;;;10.50;99.90;;;;;;5012774;28;20044;-45
2022/09/27 13:28:30;;;;;;;1.55;0.30;;;10.70;99.90;;;;;;5051563;28;20483;-46
2022/09/27 13:31:36;;;;;;;1.25;0.30;;;10.80;99.90;;;;;;5048050;28;20033;-42